Time;durP1;ratioP1;P1;durP2;ratioP2;P2;SDS_P1;SDS_P2;PMS_P1;PMS_P2;Temp;Humidity;BMP_temperature;BMP_pressure;BME280_temperature;BME280_humidity;BME280_pressure;Samples;Min_cycle;Max_cycle;Signal;HPM_P1;HPM_P2
2023/09/21 00:00:16;;;;;;;7.57;6.82;;;18.40;79.90;;;;;;4946766;29;20436;-82
2023/09/21 00:02:49;;;;;;;9.25;7.97;;;18.30;80.20;;;;;;4955613;29;20473;-81
2023/09/21 00:05:18;;;;;;;9.35;6.93;;;18.20;80.40;;;;;;4956363;29;20075;-81
2023/09/21 00:07:44;;;;;;;8.68;6.78;;;18.30;80.60;;;;;;4956544;29;20079;-82
2023/09/21 00:10:10;;;;;;;11.48;7.85;;;18.30;80.80;;;;;;4952752;28;20039;-83
2023/09/21 00:12:36;;;;;;;10.98;8.10;;;18.20;80.90;;;;;;4967434;28;20023;-82
2023/09/21 00:15:06;;;;;;;10.60;7.63;;;18.20;81.10;;;;;;4968514;28;20063;-82
2023/09/21 00:17:39;;;;;;;9.18;8.23;;;18.30;81.20;;;;;;4963667;28;20063;-81
2023/09/21 00:22:53;;;;;;;12.55;7.97;;;18.30;81.60;;;;;;4944415;29;20107;-82
2023/09/21 00:25:19;;;;;;;13.65;7.72;;;18.30;81.90;;;;;;4947545;29;20027;-82
2023/09/21 00:27:45;;;;;;;12.27;7.40;;;18.30;82.00;;;;;;4942836;29;20015;-82
2023/09/21 00:30:12;;;;;;;13.30;7.78;;;18.20;82.00;;;;;;4958683;29;20053;-80
2023/09/21 00:32:39;;;;;;;11.98;7.68;;;18.30;82.20;;;;;;4942111;28;20078;-80
2023/09/21 00:35:10;;;;;;;9.90;7.77;;;18.20;82.30;;;;;;4959235;29;20481;-84
2023/09/21 00:37:37;;;;;;;12.00;8.05;;;18.20;82.50;;;;;;4963742;29;20051;-83
2023/09/21 00:40:24;;;;;;;;;;;18.30;82.70;;;;;;4962986;29;20024;-83
2023/09/21 00:42:53;;;;;;;12.68;8.48;;;18.20;82.20;;;;;;4969024;28;19910;-83
2023/09/21 00:45:21;;;;;;;9.32;7.35;;;18.20;82.80;;;;;;4965584;29;20547;-82
2023/09/21 00:47:54;;;;;;;8.48;7.55;;;18.20;83.10;;;;;;4964136;28;20027;-83
2023/09/21 00:50:22;;;;;;;10.63;7.97;;;18.20;83.80;;;;;;4955732;29;20023;-83
2023/09/21 00:52:54;;;;;;;10.35;8.45;;;18.20;83.30;;;;;;4960613;29;20094;-84
2023/09/21 00:55:24;;;;;;;9.40;8.32;;;18.20;83.40;;;;;;4957087;28;20027;-82
2023/09/21 00:57:53;;;;;;;11.68;8.85;;;18.20;83.40;;;;;;4956696;29;20035;-83
2023/09/21 01:00:19;;;;;;;13.57;8.55;;;18.20;83.70;;;;;;4955853;28;20015;-82
2023/09/21 01:02:47;;;;;;;9.93;7.90;;;18.20;84.10;;;;;;4957439;29;20065;-82
2023/09/21 01:05:13;;;;;;;12.50;8.68;;;18.10;84.10;;;;;;4956634;29;20047;-83
2023/09/21 01:07:42;;;;;;;10.90;8.70;;;18.10;84.30;;;;;;4939774;29;20023;-82
2023/09/21 01:10:13;;;;;;;9.55;8.20;;;18.10;84.40;;;;;;4939372;29;20479;-83
2023/09/21 01:12:40;;;;;;;10.68;8.73;;;18.10;84.60;;;;;;4956945;29;20062;-83
2023/09/21 01:15:13;;;;;;;10.05;8.05;;;18.10;84.70;;;;;;4957395;29;20059;-81
2023/09/21 01:17:41;;;;;;;10.60;8.05;;;18.10;84.90;;;;;;4960130;29;20082;-81
2023/09/21 01:20:27;;;;;;;15.70;9.18;;;18.10;85.00;;;;;;4960322;29;20051;-82
2023/09/21 01:23:17;;;;;;;10.30;8.85;;;18.10;85.20;;;;;;4958656;29;20027;-81
2023/09/21 01:25:44;;;;;;;11.95;8.52;;;18.10;85.50;;;;;;4956316;29;20456;-82
2023/09/21 01:28:12;;;;;;;10.73;8.23;;;18.10;85.60;;;;;;4955147;28;20543;-83
2023/09/21 01:30:38;;;;;;;14.80;9.75;;;18.10;85.90;;;;;;4954822;29;20063;-80
2023/09/21 01:33:11;;;;;;;14.45;9.32;;;18.10;86.10;;;;;;4955776;29;20361;-82
2023/09/21 01:35:43;;;;;;;12.63;8.50;;;18.10;86.50;;;;;;4956196;29;20409;-83
2023/09/21 01:38:10;;;;;;;11.18;8.93;;;18.10;86.60;;;;;;4955845;29;20050;-83
2023/09/21 01:40:40;;;;;;;9.95;8.95;;;18.10;86.60;;;;;;4957641;29;20031;-81
2023/09/21 01:43:07;;;;;;;12.23;8.85;;;18.10;86.80;;;;;;4974878;28;20011;-81
2023/09/21 01:45:39;;;;;;;;;;;18.10;87.00;;;;;;4950547;29;20032;-81
2023/09/21 01:48:09;;;;;;;15.85;8.63;;;18.10;86.60;;;;;;4938659;29;19906;-82
2023/09/21 01:50:46;;;;;;;10.05;8.52;;;18.00;87.20;;;;;;4955718;29;20500;-83
2023/09/21 01:53:19;;;;;;;;;;;18.00;87.60;;;;;;4955843;29;20497;-81
2023/09/21 01:55:47;;;;;;;10.80;8.85;;;17.90;87.00;;;;;;4955509;29;20394;-80
2023/09/21 01:58:14;;;;;;;12.52;8.60;;;17.90;87.80;;;;;;4955375;29;20043;-81
2023/09/21 02:00:43;;;;;;;11.55;9.05;;;17.90;88.00;;;;;;4956451;29;20097;-81
2023/09/21 02:03:11;;;;;;;12.75;8.73;;;17.90;88.20;;;;;;4961051;29;20035;-81
2023/09/21 02:05:37;;;;;;;12.70;8.85;;;17.90;88.20;;;;;;4976474;28;20027;-80
2023/09/21 02:08:08;;;;;;;11.73;9.00;;;17.90;88.30;;;;;;4955688;29;20106;-80
2023/09/21 02:10:35;;;;;;;11.57;9.27;;;17.90;88.30;;;;;;4954953;29;20039;-79
2023/09/21 02:13:05;;;;;;;15.48;9.00;;;17.90;88.20;;;;;;4970022;28;20109;-81
2023/09/21 02:15:34;;;;;;;15.55;9.07;;;17.90;88.30;;;;;;4955078;29;20035;-81
2023/09/21 02:18:02;;;;;;;11.68;9.18;;;17.90;88.30;;;;;;4955026;29;20074;-81
2023/09/21 02:20:32;;;;;;;13.05;8.93;;;17.90;88.40;;;;;;4969897;28;20114;-82
2023/09/21 02:23:00;;;;;;;13.10;9.23;;;17.80;88.70;;;;;;4955142;29;20130;-81
2023/09/21 02:25:30;;;;;;;10.25;9.25;;;17.80;88.90;;;;;;4946713;29;20031;-81
2023/09/21 02:27:56;;;;;;;11.88;8.85;;;17.80;89.00;;;;;;4972908;29;20015;-83
2023/09/21 02:30:23;;;;;;;13.73;9.30;;;17.80;89.30;;;;;;4942772;29;20059;-82
2023/09/21 02:32:51;;;;;;;10.88;9.80;;;17.70;89.50;;;;;;4918658;29;20038;-83
2023/09/21 02:35:27;;;;;;;13.35;9.25;;;17.70;89.80;;;;;;4934502;29;20485;-82
2023/09/21 02:37:55;;;;;;;13.15;8.93;;;17.70;89.90;;;;;;4934387;29;20042;-83
2023/09/21 02:40:23;;;;;;;14.60;8.90;;;17.70;89.90;;;;;;4918680;29;20168;-82
2023/09/21 02:42:52;;;;;;;;;;;17.70;90.10;;;;;;4918704;29;20042;-83
2023/09/21 02:45:19;;;;;;;12.18;8.55;;;17.70;89.60;;;;;;4934252;29;20017;-82
2023/09/21 02:47:46;;;;;;;12.75;9.35;;;17.60;90.10;;;;;;4934101;29;20034;-82
2023/09/21 02:50:20;;;;;;;;;;;17.60;90.40;;;;;;4918531;29;20044;-83
2023/09/21 02:52:49;;;;;;;12.38;9.52;;;17.60;90.10;;;;;;4935394;29;19906;-82
2023/09/21 02:55:20;;;;;;;12.05;9.70;;;17.60;90.40;;;;;;4915301;29;20027;-81
2023/09/21 02:57:47;;;;;;;17.73;10.45;;;17.60;90.50;;;;;;4927211;29;20454;-81
2023/09/21 03:00:49;;;;;;;11.17;9.90;;;17.60;90.50;;;;;;4918106;29;20028;-81
2023/09/21 03:03:08;;;;;;;12.50;9.00;;;17.60;90.60;;;;;;4933898;29;20266;-82
2023/09/21 03:05:34;;;;;;;15.13;10.10;;;17.60;90.70;;;;;;4950163;29;20032;-83
2023/09/21 03:08:05;;;;;;;14.30;9.43;;;17.60;90.80;;;;;;4918268;29;20032;-84
2023/09/21 03:10:31;;;;;;;11.30;9.77;;;17.60;90.80;;;;;;4914697;29;20084;-83
2023/09/21 03:12:58;;;;;;;10.90;9.90;;;17.60;90.90;;;;;;4927452;29;20038;-82
2023/09/21 03:15:24;;;;;;;15.88;10.65;;;17.60;90.90;;;;;;4918063;29;20027;-83
2023/09/21 03:17:52;;;;;;;17.30;10.60;;;17.60;90.90;;;;;;4918014;29;20471;-83
2023/09/21 03:20:38;;;;;;;13.32;9.65;;;17.60;91.00;;;;;;4934644;29;20063;-82
2023/09/21 03:23:11;;;;;;;13.20;9.23;;;17.60;91.00;;;;;;4935429;29;20015;-82
2023/09/21 03:25:47;;;;;;;16.55;10.13;;;17.70;91.00;;;;;;4918186;29;20031;-82
2023/09/21 03:28:15;;;;;;;14.02;10.70;;;17.70;91.10;;;;;;4915378;29;20394;-82
2023/09/21 03:30:49;;;;;;;13.10;10.40;;;17.70;91.10;;;;;;4946929;29;20051;-82
2023/09/21 03:33:20;;;;;;;13.95;9.68;;;17.60;91.10;;;;;;4955444;29;20034;-82
2023/09/21 03:35:46;;;;;;;15.60;10.63;;;17.60;91.30;;;;;;4973905;28;20007;-82
2023/09/21 03:38:12;;;;;;;14.68;9.95;;;17.60;91.20;;;;;;4955805;29;20041;-82
2023/09/21 03:40:43;;;;;;;13.25;10.23;;;17.60;91.20;;;;;;4954165;29;20034;-82
2023/09/21 03:43:12;;;;;;;15.70;11.05;;;17.60;91.20;;;;;;4935953;29;20118;-83
2023/09/21 03:45:40;;;;;;;19.05;9.73;;;17.70;91.30;;;;;;4954140;29;20031;-83
2023/09/21 03:48:08;;;;;;;15.30;10.35;;;17.70;91.20;;;;;;4936391;29;20023;-80
2023/09/21 03:50:35;;;;;;;15.57;10.48;;;17.70;91.20;;;;;;4953933;28;20045;-80
2023/09/21 03:53:04;;;;;;;15.53;10.90;;;17.80;91.20;;;;;;4939487;29;20031;-80
2023/09/21 03:55:33;;;;;;;14.05;10.18;;;17.80;91.40;;;;;;4958745;29;20349;-82
2023/09/21 03:58:00;;;;;;;14.45;10.57;;;17.90;91.20;;;;;;4942455;29;20035;-82
2023/09/21 04:03:09;;;;;;;14.68;11.15;;;18.00;91.10;;;;;;4968675;29;20113;-83
2023/09/21 04:05:40;;;;;;;13.73;11.07;;;18.00;91.00;;;;;;4972128;29;20038;-81
2023/09/21 04:08:07;;;;;;;14.18;10.05;;;18.00;91.10;;;;;;4960642;28;20019;-81
2023/09/21 04:10:33;;;;;;;14.57;10.88;;;18.00;91.10;;;;;;4962272;28;20054;-81
2023/09/21 04:12:59;;;;;;;14.55;10.93;;;18.00;91.00;;;;;;4944381;29;20023;-81
2023/09/21 04:15:28;;;;;;;19.23;11.32;;;18.10;91.10;;;;;;4961834;28;20023;-81
2023/09/21 04:17:55;;;;;;;13.27;10.73;;;18.10;91.00;;;;;;4944145;29;20027;-81
2023/09/21 04:20:21;;;;;;;17.60;9.75;;;18.10;91.10;;;;;;4959080;28;20023;-80
2023/09/21 04:22:53;;;;;;;12.93;11.10;;;18.10;91.00;;;;;;4957130;28;20030;-81
2023/09/21 04:25:19;;;;;;;13.55;11.68;;;18.20;91.00;;;;;;4957138;28;20023;-81
2023/09/21 04:27:47;;;;;;;14.43;11.07;;;18.20;91.30;;;;;;4957294;29;20015;-81
2023/09/21 04:30:15;;;;;;;16.45;11.05;;;18.20;91.20;;;;;;4956658;29;20043;-83
2023/09/21 04:32:44;;;;;;;18.88;11.75;;;18.30;91.20;;;;;;4941325;29;20019;-80
2023/09/21 04:35:18;;;;;;;17.90;12.48;;;18.30;91.00;;;;;;4940469;29;20083;-81
2023/09/21 04:37:45;;;;;;;16.58;12.40;;;18.30;91.00;;;;;;4957200;29;20456;-81
2023/09/21 04:40:12;;;;;;;16.95;13.90;;;18.40;91.00;;;;;;4960895;29;20019;-81
2023/09/21 04:42:47;;;;;;;22.13;13.93;;;18.40;90.90;;;;;;4974529;28;20035;-81
2023/09/21 04:45:16;;;;;;;14.32;10.15;;;18.50;91.00;;;;;;4957496;29;20031;-80
2023/09/21 04:47:45;;;;;;;17.35;11.90;;;18.50;90.80;;;;;;4957773;28;20030;-79
2023/09/21 04:50:11;;;;;;;12.88;10.68;;;18.60;90.70;;;;;;4944289;28;20056;-79
2023/09/21 04:52:38;;;;;;;16.30;11.15;;;18.60;90.60;;;;;;4939713;29;20090;-81
2023/09/21 04:55:04;;;;;;;13.60;11.23;;;18.60;90.50;;;;;;4956939;29;20046;-80
2023/09/21 04:57:31;;;;;;;24.08;16.70;;;18.60;90.60;;;;;;4957372;29;20028;-81
2023/09/21 04:59:58;;;;;;;19.17;14.13;;;18.60;90.70;;;;;;4971697;28;20098;-80
2023/09/21 05:02:24;;;;;;;17.80;12.32;;;18.60;90.70;;;;;;4971065;28;20559;-82
2023/09/21 05:04:52;;;;;;;14.38;12.70;;;18.60;90.60;;;;;;4956966;29;20051;-81
2023/09/21 05:07:18;;;;;;;16.80;12.93;;;18.50;90.70;;;;;;4959320;28;20082;-81
2023/09/21 05:09:45;;;;;;;19.95;13.55;;;18.60;90.70;;;;;;4956854;29;20411;-81
2023/09/21 05:12:16;;;;;;;16.70;12.40;;;18.60;90.80;;;;;;4939673;29;20400;-82
2023/09/21 05:14:42;;;;;;;20.65;12.55;;;18.60;90.70;;;;;;4956541;28;20388;-80
2023/09/21 05:17:08;;;;;;;19.65;12.27;;;18.60;90.80;;;;;;4956448;28;20027;-81
2023/09/21 05:19:34;;;;;;;16.65;11.45;;;18.70;90.70;;;;;;4956575;29;20102;-80
2023/09/21 05:22:00;;;;;;;13.65;12.05;;;18.70;90.60;;;;;;4955896;29;20074;-81
2023/09/21 05:24:26;;;;;;;18.50;13.00;;;18.70;90.60;;;;;;4940146;29;20476;-79
2023/09/21 05:26:53;;;;;;;17.92;12.10;;;18.60;90.60;;;;;;4965956;29;20035;-81
2023/09/21 05:29:24;;;;;;;25.70;16.13;;;18.50;90.70;;;;;;4971595;28;20054;-82
2023/09/21 05:31:50;;;;;;;16.92;13.23;;;18.40;91.00;;;;;;4938607;29;20027;-81
2023/09/21 05:34:17;;;;;;;13.48;10.85;;;18.40;91.20;;;;;;4954961;29;20455;-80
2023/09/21 05:36:47;;;;;;;17.43;12.70;;;18.40;91.20;;;;;;4934665;29;20401;-81
2023/09/21 05:39:17;;;;;;;17.33;12.80;;;18.40;91.20;;;;;;4958132;29;20274;-82
2023/09/21 05:41:44;;;;;;;17.10;12.60;;;18.40;91.20;;;;;;4962049;28;20059;-82
2023/09/21 05:44:10;;;;;;;16.42;13.07;;;18.40;91.20;;;;;;4940004;29;20027;-79
2023/09/21 05:46:36;;;;;;;25.15;18.58;;;18.40;91.20;;;;;;4955382;29;20106;-79
2023/09/21 05:49:03;;;;;;;19.58;14.18;;;18.40;91.30;;;;;;4955508;29;20386;-80
2023/09/21 05:51:29;;;;;;;;;;;18.40;91.40;;;;;;4938470;29;20023;-83
2023/09/21 05:53:55;;;;;;;16.50;13.25;;;18.30;91.20;;;;;;4956014;29;19922;-83
2023/09/21 05:56:21;;;;;;;17.55;12.43;;;18.30;91.40;;;;;;4955649;29;20019;-80
2023/09/21 05:58:47;;;;;;;16.42;12.98;;;18.30;91.50;;;;;;4955341;29;20027;-81
2023/09/21 06:01:15;;;;;;;15.32;12.98;;;18.30;91.60;;;;;;4938794;29;20031;-82
2023/09/21 06:03:41;;;;;;;17.88;12.45;;;18.30;91.60;;;;;;4938417;29;20027;-83
2023/09/21 06:06:07;;;;;;;14.68;12.32;;;18.30;91.70;;;;;;4955831;29;20370;-85
2023/09/21 06:08:37;;;;;;;18.70;13.40;;;18.30;91.70;;;;;;4955354;28;20083;-85
2023/09/21 06:11:04;;;;;;;18.08;14.02;;;18.20;91.70;;;;;;4938734;29;20039;-83
2023/09/21 06:13:30;;;;;;;17.30;12.77;;;18.20;91.80;;;;;;4955228;29;20022;-86
2023/09/21 06:15:56;;;;;;;17.83;13.37;;;18.30;92.00;;;;;;4937266;29;20396;-84
2023/09/21 06:18:23;;;;;;;17.88;14.27;;;18.30;91.90;;;;;;4937924;29;20281;-85
2023/09/21 06:20:49;;;;;;;22.10;13.63;;;18.40;91.80;;;;;;4935165;29;20518;-85
2023/09/21 06:23:17;;;;;;;19.20;14.32;;;18.40;91.70;;;;;;4955409;29;20095;-83
2023/09/21 06:25:43;;;;;;;18.23;13.88;;;18.50;91.70;;;;;;4955748;29;20097;-82
2023/09/21 06:28:09;;;;;;;20.27;13.85;;;18.50;91.60;;;;;;4957369;29;20015;-86
2023/09/21 06:30:35;;;;;;;21.38;13.80;;;18.60;91.90;;;;;;4956201;29;20062;-85
2023/09/21 06:33:01;;;;;;;18.67;14.07;;;18.60;91.60;;;;;;4956023;29;20025;-84
2023/09/21 06:35:27;;;;;;;25.60;17.17;;;18.60;91.50;;;;;;4938276;29;20051;-85
2023/09/21 06:37:54;;;;;;;18.63;14.23;;;18.60;91.60;;;;;;4937634;29;20034;-84
2023/09/21 06:40:26;;;;;;;19.75;14.30;;;18.60;91.60;;;;;;4955883;29;20388;-86
2023/09/21 06:42:52;;;;;;;19.13;14.85;;;18.70;91.50;;;;;;4941574;29;20039;-86
2023/09/21 06:45:19;;;;;;;16.85;13.98;;;18.80;91.40;;;;;;4955692;29;20485;-87
2023/09/21 06:47:47;;;;;;;23.80;13.50;;;19.00;91.30;;;;;;4954583;29;20027;-85
2023/09/21 06:50:14;;;;;;;23.77;15.05;;;19.20;91.20;;;;;;4954858;29;20062;-85
2023/09/21 06:52:40;;;;;;;19.95;14.60;;;19.30;90.90;;;;;;4937961;29;20066;-85
2023/09/21 06:55:07;;;;;;;26.67;15.52;;;19.50;90.60;;;;;;4937240;29;20031;-84
2023/09/21 06:57:34;;;;;;;16.65;14.02;;;19.50;90.40;;;;;;4955192;29;20027;-85
2023/09/21 07:00:01;;;;;;;19.60;14.23;;;19.50;90.30;;;;;;4955490;29;20369;-85
2023/09/21 07:02:27;;;;;;;19.40;15.67;;;19.50;90.50;;;;;;4939118;29;20024;-84
2023/09/21 07:04:53;;;;;;;21.67;15.77;;;19.40;90.60;;;;;;4944097;29;20288;-85
2023/09/21 07:07:21;;;;;;;24.05;17.25;;;19.40;90.70;;;;;;4955858;29;20066;-84
2023/09/21 07:09:47;;;;;;;19.95;15.05;;;19.50;91.00;;;;;;4970752;28;20036;-84
2023/09/21 07:12:12;;;;;;;20.65;15.18;;;19.60;91.00;;;;;;4974582;28;20026;-83
2023/09/21 07:14:39;;;;;;;20.27;16.23;;;19.80;90.80;;;;;;4973121;29;20110;-84
2023/09/21 07:17:05;;;;;;;22.88;17.88;;;20.20;90.40;;;;;;4988772;28;20059;-84
2023/09/21 07:19:32;;;;;;;26.10;18.20;;;20.90;90.00;;;;;;4957027;29;20066;-85
2023/09/21 07:21:58;;;;;;;18.27;16.27;;;22.00;87.60;;;;;;4969202;28;20485;-86
2023/09/21 07:24:24;;;;;;;41.55;19.30;;;22.60;83.40;;;;;;4954613;29;20461;-84
2023/09/21 07:26:53;;;;;;;17.50;15.02;;;22.70;82.20;;;;;;4936736;29;20357;-84
2023/09/21 07:29:20;;;;;;;22.65;16.55;;;22.60;81.30;;;;;;4954197;29;20481;-84
2023/09/21 07:31:46;;;;;;;22.40;16.13;;;22.30;81.70;;;;;;4937530;29;20024;-84
2023/09/21 07:34:12;;;;;;;23.92;15.45;;;22.00;82.40;;;;;;4954877;29;20028;-85
2023/09/21 07:36:38;;;;;;;20.58;16.17;;;21.60;84.00;;;;;;4955344;29;20019;-86
2023/09/21 07:39:09;;;;;;;21.40;17.03;;;21.40;84.20;;;;;;4954568;29;20485;-84
2023/09/21 07:41:36;;;;;;;27.98;18.35;;;21.20;84.90;;;;;;4954741;29;20325;-84
2023/09/21 07:44:03;;;;;;;27.20;16.58;;;21.10;85.60;;;;;;4954304;29;20038;-86
2023/09/21 07:46:29;;;;;;;;;;;21.00;85.70;;;;;;4953982;29;20074;-85
2023/09/21 07:48:55;;;;;;;20.02;15.68;;;21.00;85.70;;;;;;4953624;29;20005;-85
2023/09/21 07:51:21;;;;;;;28.55;17.15;;;20.90;86.20;;;;;;4968522;28;20038;-85
2023/09/21 07:53:47;;;;;;;25.60;18.95;;;20.90;86.50;;;;;;4937074;29;20078;-84
2023/09/21 07:56:13;;;;;;;19.35;17.30;;;21.00;86.30;;;;;;4953785;29;20057;-85
2023/09/21 07:58:40;;;;;;;21.20;17.17;;;21.20;85.90;;;;;;4937393;29;20426;-86
2023/09/21 08:01:06;;;;;;;25.80;17.75;;;21.10;85.60;;;;;;4936952;29;20040;-84
2023/09/21 08:03:36;;;;;;;23.38;16.63;;;21.10;85.90;;;;;;4954465;29;20106;-88
2023/09/21 08:06:02;;;;;;;20.13;18.00;;;21.00;86.00;;;;;;4955826;29;20158;-84
2023/09/21 08:08:28;;;;;;;24.60;17.50;;;20.80;86.30;;;;;;4955761;28;20123;-86
2023/09/21 08:10:53;;;;;;;25.40;18.50;;;20.50;87.30;;;;;;4936623;29;20038;-84
2023/09/21 08:13:26;;;;;;;25.05;18.70;;;20.40;88.10;;;;;;4953354;29;20031;-85
2023/09/21 08:15:54;;;;;;;21.27;18.90;;;20.30;88.40;;;;;;4969388;28;20031;-85
2023/09/21 08:18:20;;;;;;;25.27;20.55;;;20.30;88.60;;;;;;4954223;29;20137;-85
2023/09/21 08:20:46;;;;;;;23.55;18.20;;;20.30;89.10;;;;;;4955428;29;20031;-85
2023/09/21 08:23:12;;;;;;;32.63;20.92;;;20.40;88.90;;;;;;4953750;29;20402;-84
2023/09/21 08:25:38;;;;;;;22.10;18.27;;;20.40;89.00;;;;;;4935781;29;20139;-85
2023/09/21 08:28:04;;;;;;;23.63;19.45;;;20.30;89.00;;;;;;4936670;29;20063;-84
2023/09/21 08:30:31;;;;;;;26.52;19.05;;;20.20;89.10;;;;;;4953561;29;20515;-85
2023/09/21 08:32:58;;;;;;;24.65;18.90;;;20.20;89.30;;;;;;4954280;29;20027;-86
2023/09/21 08:35:24;;;;;;;20.40;17.40;;;20.20;89.60;;;;;;4965802;28;20031;-82
2023/09/21 08:37:50;;;;;;;34.58;20.92;;;20.20;89.70;;;;;;4940265;29;20396;-84
2023/09/21 08:40:22;;;;;;;35.58;19.85;;;20.20;89.90;;;;;;4957525;29;20020;-85
2023/09/21 08:42:51;;;;;;;25.58;17.85;;;20.20;90.00;;;;;;4957070;29;20023;-85
2023/09/21 08:45:19;;;;;;;26.45;18.85;;;20.20;89.90;;;;;;4957334;29;20011;-85
2023/09/21 08:47:46;;;;;;;26.35;20.00;;;20.20;89.90;;;;;;4957421;29;20019;-85
2023/09/21 08:50:15;;;;;;;24.38;19.10;;;20.20;90.00;;;;;;4958330;29;20042;-84
2023/09/21 08:52:45;;;;;;;24.58;18.20;;;20.20;90.10;;;;;;4984694;28;20023;-85
2023/09/21 08:55:16;;;;;;;31.00;18.70;;;20.20;90.10;;;;;;4948014;29;20030;-85
2023/09/21 08:57:42;;;;;;;29.17;20.00;;;20.30;90.10;;;;;;4957689;29;20019;-85
2023/09/21 09:00:09;;;;;;;30.30;19.13;;;20.30;89.90;;;;;;4956287;29;20117;-86
2023/09/21 09:02:36;;;;;;;29.98;18.73;;;20.40;89.80;;;;;;4957871;29;20050;-86
2023/09/21 09:05:08;;;;;;;22.90;18.30;;;20.40;89.60;;;;;;4942637;29;20039;-86
2023/09/21 09:07:41;;;;;;;27.92;18.55;;;20.40;89.50;;;;;;4970061;29;20019;-86
2023/09/21 09:10:11;;;;;;;49.80;22.85;;;20.40;89.60;;;;;;4947330;29;20035;-85
2023/09/21 09:12:39;;;;;;;24.38;18.23;;;20.50;89.50;;;;;;4957823;29;20027;-83
2023/09/21 09:15:08;;;;;;;22.15;17.15;;;20.50;88.70;;;;;;4941379;29;20023;-85
2023/09/21 09:17:35;;;;;;;25.65;19.20;;;20.50;88.90;;;;;;4958088;29;20082;-86
2023/09/21 09:20:03;;;;;;;18.43;15.73;;;20.70;88.40;;;;;;4941294;29;20098;-85
2023/09/21 09:22:34;;;;;;;73.70;28.95;;;20.90;87.80;;;;;;4944056;29;20025;-86
2023/09/21 09:25:09;;;;;;;30.25;19.10;;;21.40;87.20;;;;;;4959818;29;20023;-85
2023/09/21 09:27:35;;;;;;;31.63;18.30;;;21.90;85.30;;;;;;4942170;29;20047;-85
2023/09/21 09:30:08;;;;;;;27.42;18.65;;;22.40;83.10;;;;;;4958671;29;20401;-86
2023/09/21 09:32:41;;;;;;;28.23;21.00;;;22.80;81.60;;;;;;4956345;29;20027;-86
2023/09/21 09:35:13;;;;;;;32.15;17.98;;;22.90;80.60;;;;;;4956547;29;20074;-85
2023/09/21 09:37:40;;;;;;;20.00;16.42;;;23.10;79.80;;;;;;4938906;29;20027;-84
2023/09/21 09:40:12;;;;;;;20.13;16.73;;;23.20;79.10;;;;;;4939161;29;20457;-85
2023/09/21 09:42:43;;;;;;;23.20;17.50;;;23.30;78.50;;;;;;4938729;29;20054;-85
2023/09/21 09:45:30;;;;;;;19.77;15.73;;;23.40;78.30;;;;;;4957700;29;20019;-84
2023/09/21 09:48:03;;;;;;;20.58;15.15;;;23.40;77.50;;;;;;4956330;29;20027;-86
2023/09/21 09:50:34;;;;;;;17.92;14.98;;;23.20;77.90;;;;;;4970407;28;20035;-86
2023/09/21 09:53:06;;;;;;;20.33;16.02;;;23.10;77.30;;;;;;4959433;28;20027;-85
2023/09/21 09:55:36;;;;;;;22.60;15.38;;;23.00;77.50;;;;;;4945796;29;20038;-85
2023/09/21 09:58:03;;;;;;;20.23;15.77;;;22.80;78.10;;;;;;4940390;29;20065;-84
2023/09/21 10:00:35;;;;;;;;;;;22.70;78.50;;;;;;4956352;29;20102;-86
2023/09/21 10:03:03;;;;;;;20.80;16.08;;;22.60;78.90;;;;;;4955750;29;20380;-86
2023/09/21 10:05:30;;;;;;;18.67;16.23;;;22.30;79.10;;;;;;4956046;29;20051;-86
2023/09/21 10:08:02;;;;;;;25.88;15.70;;;22.30;79.70;;;;;;4939265;29;20031;-85
2023/09/21 10:10:32;;;;;;;21.17;15.00;;;22.20;79.80;;;;;;4955356;28;20093;-85
2023/09/21 10:12:59;;;;;;;20.23;14.65;;;22.30;79.60;;;;;;4938550;29;20038;-86
2023/09/21 10:15:26;;;;;;;19.00;16.33;;;22.30;79.70;;;;;;4969132;28;20039;-86
2023/09/21 10:17:55;;;;;;;24.55;14.77;;;22.20;80.00;;;;;;4939371;29;20042;-86
2023/09/21 10:20:27;;;;;;;16.33;14.68;;;22.30;79.60;;;;;;4939064;29;20477;-85
2023/09/21 10:22:54;;;;;;;16.83;14.23;;;22.30;79.70;;;;;;4971147;28;20609;-84
2023/09/21 10:25:39;;;;;;;25.35;16.00;;;22.20;79.80;;;;;;4939001;29;20027;-86
2023/09/21 10:28:27;;;;;;;18.35;13.45;;;22.00;80.40;;;;;;4951396;28;20087;-86
2023/09/21 10:30:54;;;;;;;17.73;14.82;;;21.90;80.40;;;;;;4965965;29;20069;-86
2023/09/21 10:33:20;;;;;;;25.48;16.60;;;21.80;80.90;;;;;;4955001;29;20025;-86
2023/09/21 10:35:46;;;;;;;19.85;16.45;;;21.80;81.20;;;;;;4954977;29;20098;-84
2023/09/21 10:38:17;;;;;;;23.02;15.30;;;21.80;81.60;;;;;;4955287;29;20051;-85
2023/09/21 10:40:44;;;;;;;18.52;15.57;;;21.70;81.50;;;;;;4954850;29;20036;-86
2023/09/21 10:43:37;;;;;;;20.27;16.13;;;21.60;82.00;;;;;;4937287;29;20432;-86
2023/09/21 10:46:29;;;;;;;24.73;17.50;;;21.50;82.20;;;;;;4937592;29;20031;-85
2023/09/21 10:49:16;;;;;;;20.90;14.65;;;21.60;82.80;;;;;;4938100;29;20072;-85
2023/09/21 10:51:43;;;;;;;23.45;15.10;;;21.60;82.50;;;;;;4955028;28;20253;-84
2023/09/21 10:54:12;;;;;;;22.83;15.82;;;21.70;82.60;;;;;;4958084;29;20038;-85
2023/09/21 10:56:38;;;;;;;39.85;18.52;;;21.90;82.10;;;;;;4965055;29;20019;-85
2023/09/21 10:59:07;;;;;;;14.75;12.52;;;22.10;81.40;;;;;;4962016;29;20395;-85
2023/09/21 11:01:34;;;;;;;16.35;13.55;;;22.30;80.10;;;;;;4955973;28;20111;-85
2023/09/21 11:04:00;;;;;;;21.03;14.87;;;22.40;79.60;;;;;;4955286;29;20102;-85
2023/09/21 11:06:26;;;;;;;22.20;16.33;;;22.30;79.70;;;;;;4936926;29;20826;-86
2023/09/21 11:08:53;;;;;;;40.95;20.73;;;22.10;80.00;;;;;;4937983;29;20031;-87
2023/09/21 11:11:22;;;;;;;24.88;15.55;;;22.10;80.70;;;;;;4954847;29;20027;-86
2023/09/21 11:13:51;;;;;;;25.83;15.77;;;22.10;80.80;;;;;;4954411;29;20034;-87
2023/09/21 11:16:18;;;;;;;23.40;15.45;;;22.00;80.90;;;;;;4936895;29;20110;-85
2023/09/21 11:18:44;;;;;;;27.20;15.80;;;21.90;81.00;;;;;;4937791;29;20019;-87
2023/09/21 11:21:13;;;;;;;17.23;14.88;;;22.00;81.30;;;;;;4955050;29;20110;-86
2023/09/21 11:23:42;;;;;;;21.45;14.05;;;22.00;81.10;;;;;;4954058;29;20077;-84
2023/09/21 11:26:11;;;;;;;34.75;18.50;;;22.00;80.90;;;;;;4955018;29;20493;-87
2023/09/21 11:28:37;;;;;;;20.23;15.02;;;22.00;81.60;;;;;;4954722;29;20361;-85
2023/09/21 11:31:05;;;;;;;16.13;13.02;;;21.90;81.60;;;;;;4954529;29;20579;-85
2023/09/21 11:33:34;;;;;;;23.95;19.55;;;22.00;81.30;;;;;;4955155;29;20019;-86
2023/09/21 11:36:01;;;;;;;19.75;12.75;;;21.90;81.70;;;;;;4954498;29;20130;-87
2023/09/21 11:38:29;;;;;;;30.30;16.52;;;22.00;81.90;;;;;;4954507;29;20011;-85
2023/09/21 11:40:55;;;;;;;14.57;12.68;;;22.00;82.40;;;;;;4954203;29;20102;-86
2023/09/21 11:43:22;;;;;;;17.45;12.07;;;22.00;82.10;;;;;;4954297;29;20111;-86
2023/09/21 11:45:47;;;;;;;18.40;13.50;;;22.10;81.60;;;;;;4954383;29;20023;-87
2023/09/21 11:48:13;;;;;;;20.88;12.60;;;22.00;81.80;;;;;;4937258;29;20102;-86
2023/09/21 11:50:43;;;;;;;14.38;12.27;;;22.00;82.10;;;;;;4927249;29;20042;-86
2023/09/21 11:53:09;;;;;;;17.35;12.85;;;22.10;81.80;;;;;;4935999;29;20053;-87
2023/09/21 11:55:40;;;;;;;26.70;15.23;;;22.00;82.10;;;;;;4955650;29;20528;-85
2023/09/21 11:58:10;;;;;;;19.35;14.68;;;22.10;82.30;;;;;;4936811;29;20027;-88
2023/09/21 12:00:45;;;;;;;17.38;13.82;;;22.20;82.00;;;;;;4955856;29;20023;-86
2023/09/21 12:03:16;;;;;;;13.35;12.00;;;22.20;81.60;;;;;;4955186;29;20465;-86
2023/09/21 12:05:45;;;;;;;14.18;11.85;;;22.10;81.10;;;;;;4943714;29;20054;-85
2023/09/21 12:08:15;;;;;;;70.03;20.92;;;21.80;81.40;;;;;;4948150;29;20027;-86
2023/09/21 12:10:47;;;;;;;17.13;12.90;;;21.60;82.70;;;;;;4954156;28;20023;-86
2023/09/21 12:13:14;;;;;;;19.90;12.13;;;21.60;82.90;;;;;;4955392;28;20023;-87
2023/09/21 12:15:41;;;;;;;25.27;13.05;;;21.70;82.40;;;;;;4958771;29;20038;-87
2023/09/21 12:18:07;;;;;;;18.67;13.52;;;21.60;82.50;;;;;;4957989;29;20027;-86
2023/09/21 12:20:34;;;;;;;18.25;13.50;;;21.60;83.10;;;;;;4958173;29;20034;-87
2023/09/21 12:23:06;;;;;;;19.20;13.05;;;21.70;83.20;;;;;;4958468;29;20024;-86
2023/09/21 12:25:33;;;;;;;16.55;13.35;;;21.80;83.00;;;;;;4959086;29;20119;-85
2023/09/21 12:27:59;;;;;;;18.77;12.45;;;21.80;82.50;;;;;;4952928;29;20023;-86
2023/09/21 12:30:26;;;;;;;19.40;12.80;;;21.90;82.50;;;;;;4949912;29;20512;-84
2023/09/21 12:32:52;;;;;;;15.63;11.68;;;21.90;82.10;;;;;;4957644;29;20019;-86
2023/09/21 12:35:19;;;;;;;20.17;11.57;;;21.90;82.20;;;;;;4958304;29;20044;-87
2023/09/21 12:37:52;;;;;;;14.95;12.10;;;21.80;82.20;;;;;;4929201;29;20060;-86
2023/09/21 12:40:18;;;;;;;19.05;13.85;;;21.90;82.30;;;;;;4943280;29;20024;-87
2023/09/21 12:42:45;;;;;;;19.25;13.48;;;21.80;82.20;;;;;;4961049;29;20070;-86
2023/09/21 12:45:11;;;;;;;;;;;21.90;82.10;;;;;;4944216;29;20468;-85